createdAt,value
2019-01-25T00:01:14.783Z,66.60
2019-01-25T00:03:46.538Z,62.43
2019-01-25T00:06:16.557Z,60.30
2019-01-25T00:08:46.386Z,65.33
2019-01-25T00:11:16.180Z,66.97
2019-01-25T00:13:45.984Z,68.00
2019-01-25T00:16:15.820Z,63.27
2019-01-25T00:18:45.637Z,64.10
2019-01-25T00:21:15.503Z,70.37
2019-01-25T00:23:45.435Z,66.60
2019-01-25T00:26:15.221Z,65.47
2019-01-25T00:28:44.985Z,56.10
2019-01-25T00:31:14.772Z,68.00
2019-01-25T00:33:46.991Z,65.20
2019-01-25T00:36:16.843Z,67.40
2019-01-25T00:38:46.765Z,62.83
2019-01-25T00:41:16.526Z,69.17
2019-01-25T00:43:47.305Z,69.17
2019-01-25T00:46:17.077Z,62.93
2019-01-25T00:48:48.979Z,53.63
2019-01-25T00:51:18.825Z,63.60
2019-01-25T00:53:48.711Z,68.20
2019-01-25T00:56:18.494Z,68.53
2019-01-25T00:58:48.428Z,61.30
2019-01-25T01:01:18.230Z,64.73
2019-01-25T01:03:48.011Z,65.57
2019-01-25T01:06:17.811Z,67.20
2019-01-25T01:08:47.755Z,67.87
2019-01-25T01:11:17.540Z,60.30
2019-01-25T01:13:48.631Z,62.23
2019-01-25T01:16:18.577Z,63.90
2019-01-25T01:18:48.708Z,59.97
2019-01-25T01:21:18.574Z,72.17
2019-01-25T01:23:48.347Z,61.90
2019-01-25T01:26:18.252Z,63.13
2019-01-25T01:28:47.996Z,67.63
2019-01-25T01:31:17.794Z,69.03
2019-01-25T01:33:47.640Z,67.33
2019-01-25T01:36:17.445Z,61.40
2019-01-25T01:38:50.000Z,68.87
2019-01-25T01:41:19.876Z,68.70
2019-01-25T01:43:49.909Z,66.80
2019-01-25T01:46:19.849Z,66.90
2019-01-25T01:48:49.693Z,59.67
2019-01-25T01:51:19.554Z,66.27
2019-01-25T01:53:49.321Z,70.93
2019-01-25T01:56:19.152Z,71.00
2019-01-25T01:58:48.956Z,69.57
2019-01-25T02:01:18.796Z,67.63
2019-01-25T02:03:48.561Z,73.77
2019-01-25T02:06:18.395Z,73.00
2019-01-25T02:08:48.324Z,66.10
2019-01-25T02:11:18.128Z,74.97
2019-01-25T02:13:48.035Z,77.97
2019-01-25T02:16:17.869Z,70.30
2019-01-25T02:18:47.660Z,65.50
2019-01-25T02:21:17.684Z,57.73
2019-01-25T02:23:47.561Z,61.23
2019-01-25T02:26:17.310Z,72.93
2019-01-25T02:28:47.229Z,75.80
2019-01-25T02:31:17.142Z,81.93
2019-01-25T02:33:47.165Z,75.93
2019-01-25T02:36:16.976Z,78.33
2019-01-25T02:38:46.855Z,79.53
2019-01-25T02:41:16.632Z,76.13
2019-01-25T02:43:46.434Z,71.87
2019-01-25T02:46:16.241Z,79.57
2019-01-25T02:48:46.036Z,78.43
2019-01-25T02:51:15.865Z,71.20
2019-01-25T02:53:45.927Z,78.00
2019-01-25T02:56:15.766Z,73.67
2019-01-25T02:58:47.447Z,79.77
2019-01-25T03:01:17.253Z,78.03
2019-01-25T03:03:47.018Z,67.93
2019-01-25T03:06:16.820Z,67.47
2019-01-25T03:08:46.781Z,72.60
2019-01-25T03:11:16.593Z,64.07
2019-01-25T03:13:49.398Z,61.80
2019-01-25T03:16:19.259Z,63.40
2019-01-25T03:18:49.114Z,62.03
2019-01-25T03:21:19.021Z,54.47
2019-01-25T03:23:48.865Z,56.67
2019-01-25T03:26:18.745Z,65.37
2019-01-25T03:28:48.555Z,54.93
2019-01-25T03:31:18.338Z,55.83
2019-01-25T03:33:48.181Z,54.63
2019-01-25T03:36:17.976Z,53.47
2019-01-25T03:38:47.862Z,55.40
2019-01-25T03:41:17.705Z,53.90
2019-01-25T03:43:47.570Z,52.33
2019-01-25T03:46:17.511Z,55.43
2019-01-25T03:48:48.893Z,51.10
2019-01-25T03:51:18.673Z,47.87
2019-01-25T03:53:48.516Z,49.67
2019-01-25T03:56:18.407Z,45.67
2019-01-25T03:58:48.113Z,45.70
2019-01-25T04:01:17.984Z,45.13
2019-01-25T04:03:47.733Z,45.50
2019-01-25T04:06:17.643Z,48.47
2019-01-25T04:08:47.432Z,44.80
2019-01-25T04:11:17.213Z,44.00
2019-01-25T04:13:46.989Z,41.03
2019-01-25T04:16:16.754Z,42.10
2019-01-25T04:18:49.094Z,41.47
2019-01-25T04:21:18.949Z,40.40
2019-01-25T04:23:48.704Z,53.27
2019-01-25T04:26:18.512Z,44.80
2019-01-25T04:28:48.273Z,49.47
2019-01-25T04:31:18.066Z,39.73
2019-01-25T04:33:50.609Z,47.93
2019-01-25T04:36:20.457Z,45.90
2019-01-25T04:38:50.229Z,48.70
2019-01-25T04:41:19.987Z,33.07
2019-01-25T04:43:49.844Z,34.57
2019-01-25T04:46:19.590Z,35.40
2019-01-25T04:48:49.362Z,35.43
2019-01-25T04:51:19.160Z,36.50
2019-01-25T04:53:48.956Z,40.10
2019-01-25T04:56:18.796Z,36.60
2019-01-25T04:58:48.698Z,38.70
2019-01-25T05:01:18.458Z,42.27
2019-01-25T05:03:48.326Z,42.50
2019-01-25T05:06:18.180Z,37.90
2019-01-25T05:08:48.064Z,39.77
2019-01-25T05:11:19.940Z,37.53
2019-01-25T05:13:50.205Z,36.43
2019-01-25T05:16:19.982Z,37.77
2019-01-25T05:18:49.874Z,34.50
2019-01-25T05:21:24.663Z,41.10
2019-01-25T05:23:54.454Z,39.33
2019-01-25T05:26:24.222Z,34.17
2019-01-25T05:28:54.123Z,38.97
2019-01-25T05:31:27.212Z,42.93
2019-01-25T05:33:59.274Z,34.83
2019-01-25T05:36:29.136Z,33.97
2019-01-25T05:38:59.074Z,38.20
2019-01-25T05:41:28.979Z,32.93
2019-01-25T05:43:58.867Z,31.10
2019-01-25T05:46:28.704Z,40.50
2019-01-25T05:48:58.493Z,38.37
2019-01-25T05:51:33.581Z,40.83
2019-01-25T05:53:59.773Z,37.63
2019-01-25T05:56:29.549Z,41.47
2019-01-25T05:58:59.329Z,35.70
2019-01-25T06:01:29.093Z,29.20
2019-01-25T06:03:58.869Z,32.70
2019-01-25T06:06:28.707Z,33.90
2019-01-25T06:08:58.488Z,38.47
2019-01-25T06:11:35.228Z,30.67
2019-01-25T06:13:59.979Z,36.60
2019-01-25T06:16:29.799Z,30.27
2019-01-25T06:18:59.691Z,38.57
2019-01-25T06:21:29.490Z,33.10
2019-01-25T06:23:59.372Z,36.30
2019-01-25T06:26:29.222Z,40.37
2019-01-25T06:28:59.021Z,34.10
2019-01-25T06:31:28.810Z,37.30
2019-01-25T06:33:58.714Z,35.43
2019-01-25T06:36:28.464Z,35.63
2019-01-25T06:38:58.257Z,37.77
2019-01-25T06:41:28.076Z,33.13
2019-01-25T06:43:57.880Z,34.83
2019-01-25T06:46:27.741Z,35.83
2019-01-25T06:48:57.640Z,30.33
2019-01-25T06:51:27.445Z,38.10
2019-01-25T06:53:57.313Z,39.40
2019-01-25T06:56:27.168Z,32.97
2019-01-25T06:59:21.992Z,31.13
2019-01-25T07:02:16.425Z,36.47
2019-01-25T07:04:46.220Z,40.83
2019-01-25T07:07:26.480Z,35.43
2019-01-25T07:09:56.365Z,38.60
2019-01-25T07:12:26.500Z,32.37
2019-01-25T07:14:59.173Z,36.90
2019-01-25T07:17:29.024Z,35.93
2019-01-25T07:19:58.934Z,37.37
2019-01-25T07:22:28.954Z,39.30
2019-01-25T07:24:58.765Z,39.73
2019-01-25T07:27:28.560Z,45.40
2019-01-25T07:29:58.347Z,42.73
2019-01-25T07:32:28.133Z,32.27
2019-01-25T07:34:57.961Z,39.60
2019-01-25T07:37:27.814Z,38.60
2019-01-25T07:39:57.762Z,44.67
2019-01-25T07:42:27.578Z,37.63
2019-01-25T07:44:57.469Z,31.90
2019-01-25T07:47:27.291Z,41.17
2019-01-25T07:49:57.077Z,37.70
2019-01-25T07:52:27.037Z,36.80
2019-01-25T07:54:56.938Z,38.47
2019-01-25T07:57:26.977Z,36.60
2019-01-25T07:59:56.704Z,42.60
2019-01-25T08:02:26.569Z,38.23
2019-01-25T08:04:56.384Z,34.93
2019-01-25T08:07:26.331Z,41.40
2019-01-25T08:09:56.580Z,39.23
2019-01-25T08:12:26.422Z,37.67
2019-01-25T08:14:56.253Z,39.67
2019-01-25T08:17:26.474Z,35.57
2019-01-25T08:19:56.360Z,42.37
2019-01-25T08:22:26.318Z,40.80
2019-01-25T08:24:56.169Z,45.97
2019-01-25T08:27:26.438Z,48.53
2019-01-25T08:29:56.242Z,40.47
2019-01-25T08:32:26.124Z,38.43
2019-01-25T08:34:55.993Z,43.97
2019-01-25T08:37:27.015Z,42.53
2019-01-25T08:39:56.934Z,46.70
2019-01-25T08:42:26.788Z,46.17
2019-01-25T08:44:56.585Z,45.90
2019-01-25T08:47:26.377Z,45.97
2019-01-25T08:49:58.003Z,39.37
2019-01-25T08:52:28.062Z,39.13
2019-01-25T08:54:58.346Z,42.40
2019-01-25T08:57:28.247Z,39.53
2019-01-25T08:59:58.269Z,46.73
2019-01-25T09:02:28.581Z,46.03
2019-01-25T09:04:58.576Z,45.90
2019-01-25T09:07:28.381Z,43.40
2019-01-25T09:09:58.208Z,43.10
2019-01-25T09:12:28.073Z,42.13
2019-01-25T09:14:57.914Z,36.00
2019-01-25T09:17:28.287Z,40.80
2019-01-25T09:19:58.055Z,45.00
2019-01-25T09:22:28.226Z,49.10
2019-01-25T09:24:58.141Z,46.57
2019-01-25T09:27:27.918Z,43.23
2019-01-25T09:29:57.986Z,39.03
2019-01-25T09:32:27.880Z,47.80
2019-01-25T09:34:57.728Z,44.03
2019-01-25T09:37:27.525Z,44.20
2019-01-25T09:39:57.384Z,41.80
2019-01-25T09:42:31.250Z,40.40
2019-01-25T09:44:58.865Z,40.53
2019-01-25T09:47:29.209Z,45.53
2019-01-25T09:49:59.061Z,52.53
2019-01-25T09:52:28.905Z,54.80
2019-01-25T09:54:58.799Z,44.30
2019-01-25T09:57:28.692Z,49.30
2019-01-25T09:59:58.668Z,48.50
2019-01-25T10:02:28.576Z,53.77
2019-01-25T10:04:58.372Z,38.80
2019-01-25T10:07:28.144Z,47.90
2019-01-25T10:09:57.968Z,48.40
2019-01-25T10:12:27.785Z,49.47
2019-01-25T10:14:57.592Z,45.47
2019-01-25T10:17:27.524Z,40.90
2019-01-25T10:20:01.656Z,47.70
2019-01-25T10:22:31.541Z,48.70
2019-01-25T10:25:01.362Z,44.63
2019-01-25T10:27:31.240Z,47.33
2019-01-25T10:30:01.027Z,51.83
2019-01-25T10:32:31.132Z,45.20
2019-01-25T10:35:00.983Z,48.33
2019-01-25T10:37:30.709Z,49.13
2019-01-25T10:40:00.649Z,44.40
2019-01-25T10:42:30.562Z,45.17
2019-01-25T10:45:04.431Z,46.67
2019-01-25T10:47:31.865Z,48.03
2019-01-25T10:50:01.678Z,42.50
2019-01-25T10:52:31.514Z,46.97
2019-01-25T10:55:01.362Z,45.00
2019-01-25T10:57:31.155Z,42.73
2019-01-25T11:00:01.358Z,45.90
2019-01-25T11:02:31.215Z,43.50
2019-01-25T11:05:01.113Z,45.13
2019-01-25T11:07:30.900Z,47.97
2019-01-25T11:10:00.700Z,46.80
2019-01-25T11:12:30.502Z,48.23
2019-01-25T11:15:01.326Z,49.03
2019-01-25T11:17:36.412Z,40.10
2019-01-25T11:20:04.116Z,45.93
2019-01-25T11:22:33.949Z,51.07
2019-01-25T11:25:04.341Z,49.00
2019-01-25T11:27:34.190Z,52.57
2019-01-25T11:30:04.557Z,39.23
2019-01-25T11:32:36.059Z,42.70
2019-01-25T11:35:06.224Z,42.70
2019-01-25T11:37:36.134Z,35.67
2019-01-25T11:40:10.713Z,38.57
2019-01-25T11:42:40.686Z,38.37
2019-01-25T11:45:11.225Z,43.10
2019-01-25T11:47:41.045Z,40.33
2019-01-25T11:50:12.705Z,41.57
2019-01-25T11:52:42.513Z,43.40
2019-01-25T11:55:12.429Z,38.70
2019-01-25T11:57:42.483Z,37.90
2019-01-25T12:00:20.864Z,32.83
2019-01-25T12:02:50.852Z,37.90
2019-01-25T12:05:22.131Z,38.17
2019-01-25T12:07:52.267Z,38.70
2019-01-25T12:10:24.280Z,41.00
2019-01-25T12:12:54.208Z,33.27
2019-01-25T12:15:24.212Z,33.43
2019-01-25T12:17:54.142Z,33.20
2019-01-25T12:20:25.698Z,32.87
2019-01-25T12:22:55.518Z,35.77
2019-01-25T12:25:25.504Z,35.93
2019-01-25T12:27:55.276Z,34.87
2019-01-25T12:30:27.588Z,35.53
2019-01-25T12:32:57.796Z,36.13
2019-01-25T12:35:50.948Z,33.00
2019-01-25T12:38:20.863Z,28.23
2019-01-25T12:40:54.319Z,44.33
2019-01-25T12:43:26.879Z,33.93
2019-01-25T12:45:57.469Z,32.17
2019-01-25T12:48:27.300Z,35.60
2019-01-25T12:51:04.685Z,31.33
2019-01-25T12:53:35.016Z,31.43
2019-01-25T12:56:06.116Z,28.57
2019-01-25T12:58:36.022Z,33.63
2019-01-25T13:01:06.311Z,35.97
2019-01-25T13:03:36.327Z,27.83
2019-01-25T13:06:06.962Z,29.97
2019-01-25T13:08:36.789Z,29.60
2019-01-25T13:11:06.831Z,29.10
2019-01-25T13:13:36.714Z,36.53
2019-01-25T13:16:06.812Z,27.50
2019-01-25T13:18:36.739Z,28.73
2019-01-25T13:21:06.819Z,32.70
2019-01-25T13:23:36.573Z,25.90
2019-01-25T13:26:06.481Z,30.70
2019-01-25T13:28:36.319Z,33.80
2019-01-25T13:31:06.280Z,30.60
2019-01-25T13:33:36.595Z,30.37
2019-01-25T13:36:13.007Z,30.53
2019-01-25T13:38:42.880Z,38.67
2019-01-25T13:41:12.767Z,31.77
2019-01-25T13:43:43.030Z,29.43
2019-01-25T13:46:13.783Z,31.53
2019-01-25T13:48:44.069Z,29.60
2019-01-25T13:51:14.838Z,36.20
2019-01-25T13:53:44.777Z,37.50
2019-01-25T13:56:14.733Z,28.90
2019-01-25T13:58:44.523Z,30.13
2019-01-25T14:01:14.521Z,27.00
2019-01-25T14:03:44.412Z,42.47
2019-01-25T14:06:14.222Z,36.03
2019-01-25T14:08:44.018Z,33.57
2019-01-25T14:11:14.188Z,29.90
2019-01-25T14:13:46.899Z,37.27
2019-01-25T14:16:15.632Z,36.50
2019-01-25T14:18:45.469Z,31.00
2019-01-25T14:21:15.329Z,34.00
2019-01-25T14:23:46.704Z,33.37
2019-01-25T14:26:16.583Z,32.13
2019-01-25T14:28:46.714Z,32.80
2019-01-25T14:31:16.608Z,36.23
2019-01-25T14:34:03.966Z,31.57
2019-01-25T14:36:29.746Z,33.13
2019-01-25T14:38:59.597Z,34.40
2019-01-25T14:42:08.111Z,32.93
2019-01-25T14:44:58.215Z,34.30
2019-01-25T14:47:38.760Z,32.37
2019-01-25T14:50:12.490Z,31.43
2019-01-25T14:52:45.655Z,32.60
2019-01-25T14:55:28.882Z,34.90
2019-01-25T14:58:40.884Z,31.53
2019-01-25T15:01:38.345Z,34.07
2019-01-25T15:04:16.022Z,26.80
2019-01-25T15:07:02.658Z,30.97
2019-01-25T15:09:33.887Z,30.43
2019-01-25T15:12:09.989Z,25.53
2019-01-25T15:14:39.828Z,42.50
2019-01-25T15:17:10.088Z,23.47
2019-01-25T15:19:40.017Z,19.00
2019-01-25T15:22:10.796Z,20.90
2019-01-25T15:24:40.717Z,17.67
2019-01-25T15:27:11.654Z,26.10
2019-01-25T15:29:42.151Z,25.23
2019-01-25T15:32:12.428Z,19.50
2019-01-25T15:34:42.308Z,23.17
2019-01-25T15:37:12.137Z,21.20
2019-01-25T15:39:42.214Z,17.50
2019-01-25T15:42:12.045Z,20.87
2019-01-25T15:44:42.208Z,23.50
2019-01-25T15:47:12.157Z,26.50
2019-01-25T15:49:42.053Z,20.40
2019-01-25T15:52:11.923Z,17.03
2019-01-25T15:54:41.788Z,19.17
2019-01-25T15:57:11.694Z,17.73
2019-01-25T15:59:41.562Z,22.43
2019-01-25T16:02:11.629Z,17.87
2019-01-25T16:04:41.522Z,18.97
2019-01-25T16:07:11.402Z,21.47
2019-01-25T16:09:41.619Z,33.50
2019-01-25T16:12:11.591Z,27.73
2019-01-25T16:14:41.659Z,23.40
2019-01-25T16:17:11.609Z,21.77
2019-01-25T16:19:41.468Z,22.53
2019-01-25T16:22:11.719Z,17.70
2019-01-25T16:24:41.730Z,17.03
2019-01-25T16:27:11.600Z,21.63
2019-01-25T16:29:41.561Z,18.00
2019-01-25T16:32:11.486Z,19.10
2019-01-25T16:34:41.451Z,21.90
2019-01-25T16:37:11.251Z,22.30
2019-01-25T16:39:41.043Z,24.63
2019-01-25T16:42:10.913Z,22.03
2019-01-25T16:44:40.733Z,17.47
2019-01-25T16:47:11.418Z,23.73
2019-01-25T16:49:41.322Z,21.07
2019-01-25T16:52:11.211Z,23.87
2019-01-25T16:54:41.178Z,21.90
2019-01-25T16:57:12.476Z,24.60
2019-01-25T16:59:43.433Z,21.73
2019-01-25T17:02:13.410Z,22.00
2019-01-25T17:04:43.448Z,25.83
2019-01-25T17:07:16.560Z,22.10
2019-01-25T17:09:46.411Z,21.80
2019-01-25T17:12:16.664Z,23.10
2019-01-25T17:14:46.381Z,20.10
2019-01-25T17:17:16.559Z,22.03
2019-01-25T17:19:46.394Z,22.93
2019-01-25T17:22:16.200Z,17.47
2019-01-25T17:24:46.115Z,18.87
2019-01-25T17:27:16.063Z,24.00
2019-01-25T17:29:46.033Z,25.20
2019-01-25T17:32:15.945Z,19.30
2019-01-25T17:34:45.969Z,24.77
2019-01-25T17:37:15.777Z,25.50
2019-01-25T17:39:45.620Z,24.00
2019-01-25T17:42:15.622Z,22.93
2019-01-25T17:44:45.853Z,23.10
2019-01-25T17:47:15.863Z,25.40
2019-01-25T17:49:45.734Z,18.60
2019-01-25T17:52:15.588Z,24.30
2019-01-25T17:54:45.715Z,21.40
2019-01-25T17:57:15.676Z,23.10
2019-01-25T17:59:46.156Z,23.33
2019-01-25T18:02:15.970Z,24.03
2019-01-25T18:04:45.805Z,18.43
2019-01-25T18:07:15.613Z,21.80
2019-01-25T18:09:45.446Z,21.03
2019-01-25T18:12:15.258Z,23.23
2019-01-25T18:14:49.442Z,24.47
2019-01-25T18:17:16.965Z,22.13
2019-01-25T18:19:46.833Z,25.60
2019-01-25T18:22:16.800Z,26.03
2019-01-25T18:24:46.617Z,22.83
2019-01-25T18:27:16.560Z,23.47
2019-01-25T18:29:49.416Z,22.27
2019-01-25T18:32:19.280Z,22.77
2019-01-25T18:34:49.168Z,18.80
2019-01-25T18:37:20.331Z,171.27
2019-01-25T18:39:51.719Z,27.40
2019-01-25T18:42:21.650Z,23.37
2019-01-25T18:44:56.657Z,24.93
2019-01-25T18:47:23.208Z,22.63
2019-01-25T18:49:53.029Z,18.67
2019-01-25T18:52:22.810Z,22.90
2019-01-25T18:54:52.614Z,21.70
2019-01-25T18:57:23.202Z,20.90
2019-01-25T18:59:53.773Z,21.00
2019-01-25T19:02:24.570Z,20.30
2019-01-25T19:04:54.752Z,18.27
2019-01-25T19:07:25.171Z,24.70
2019-01-25T19:09:55.545Z,19.57
2019-01-25T19:12:27.237Z,18.43
2019-01-25T19:15:04.119Z,20.20
2019-01-25T19:17:29.587Z,17.60
2019-01-25T19:20:00.184Z,19.40
2019-01-25T19:22:30.286Z,20.40
2019-01-25T19:25:00.975Z,31.87
2019-01-25T19:27:30.891Z,19.73
2019-01-25T19:30:04.054Z,18.90
2019-01-25T19:32:34.268Z,23.90
2019-01-25T19:35:05.980Z,20.93
2019-01-25T19:37:36.046Z,23.73
2019-01-25T19:40:08.021Z,22.50
2019-01-25T19:42:39.252Z,24.83
2019-01-25T19:45:11.995Z,22.03
2019-01-25T19:47:42.036Z,17.27
2019-01-25T19:50:16.071Z,18.60
2019-01-25T19:52:46.374Z,25.33
2019-01-25T19:55:19.199Z,23.30
2019-01-25T19:57:49.826Z,24.77
2019-01-25T20:00:25.994Z,20.37
2019-01-25T20:02:56.376Z,29.43
2019-01-25T20:05:27.656Z,25.10
2019-01-25T20:07:57.557Z,89.93
2019-01-25T20:10:28.077Z,42.93
2019-01-25T20:12:58.536Z,27.10
2019-01-25T20:15:28.754Z,24.70
2019-01-25T20:17:59.429Z,24.50
2019-01-25T20:20:34.731Z,24.10
2019-01-25T20:23:08.308Z,30.20
2019-01-25T20:25:41.450Z,25.17
2019-01-25T20:28:13.262Z,21.23
2019-01-25T20:30:49.586Z,17.20
2019-01-25T20:33:16.727Z,20.90
2019-01-25T20:35:47.225Z,23.43
2019-01-25T20:38:17.669Z,28.03
2019-01-25T20:40:48.596Z,29.27
2019-01-25T20:43:18.901Z,21.47
2019-01-25T20:45:49.297Z,20.30
2019-01-25T20:48:20.612Z,25.10
2019-01-25T20:50:53.349Z,21.87
2019-01-25T20:53:24.069Z,21.40
2019-01-25T20:55:54.722Z,22.07
2019-01-25T20:58:25.279Z,26.57
2019-01-25T21:00:55.406Z,23.53
2019-01-25T21:03:29.730Z,25.57
2019-01-25T21:06:00.113Z,27.43
2019-01-25T21:08:30.689Z,19.93
2019-01-25T21:11:01.835Z,23.17
2019-01-25T21:13:32.720Z,29.00
2019-01-25T21:16:03.261Z,26.27
2019-01-25T21:18:33.661Z,23.30
2019-01-25T21:21:04.026Z,23.07
2019-01-25T21:23:34.188Z,19.70
2019-01-25T21:26:04.539Z,24.20
2019-01-25T21:28:34.950Z,23.53
2019-01-25T21:31:06.267Z,25.77
2019-01-25T21:33:36.100Z,23.07
2019-01-25T21:36:06.033Z,23.13
2019-01-25T21:38:36.032Z,23.10
2019-01-25T21:41:06.452Z,25.10
2019-01-25T21:43:36.358Z,21.97
2019-01-25T21:46:06.305Z,23.27
2019-01-25T21:48:36.209Z,26.20
2019-01-25T21:51:06.915Z,28.03
2019-01-25T21:53:36.742Z,24.10
2019-01-25T21:56:06.639Z,25.00
2019-01-25T21:58:43.780Z,19.73
2019-01-25T22:01:14.534Z,24.23
2019-01-25T22:03:49.968Z,19.27
2019-01-25T22:06:23.905Z,30.17
2019-01-25T22:08:54.789Z,24.30
2019-01-25T22:11:25.310Z,24.33
2019-01-25T22:13:58.030Z,25.80
2019-01-25T22:16:28.728Z,23.60
2019-01-25T22:18:59.061Z,26.20
2019-01-25T22:21:29.801Z,24.93
2019-01-25T22:24:00.312Z,25.90
2019-01-25T22:26:31.066Z,22.27
2019-01-25T22:29:01.400Z,22.50
2019-01-25T22:31:31.916Z,22.20
2019-01-25T22:34:02.353Z,28.23
2019-01-25T22:36:32.964Z,27.73
2019-01-25T22:39:04.307Z,33.07
2019-01-25T22:41:34.665Z,26.50
2019-01-25T22:44:05.097Z,25.47
2019-01-25T22:46:38.494Z,26.57
2019-01-25T22:49:08.823Z,29.80
2019-01-25T22:51:39.954Z,29.03
2019-01-25T22:54:10.462Z,32.73
2019-01-25T22:56:41.064Z,29.10
2019-01-25T22:59:11.110Z,33.37
2019-01-25T23:01:42.105Z,30.40
2019-01-25T23:04:47.516Z,27.87
2019-01-25T23:07:27.416Z,27.47
2019-01-25T23:10:13.532Z,26.17
2019-01-25T23:12:43.889Z,32.50
2019-01-25T23:15:20.148Z,27.20
2019-01-25T23:17:53.463Z,39.13
2019-01-25T23:20:27.285Z,29.70
2019-01-25T23:22:57.460Z,27.30
2019-01-25T23:25:32.181Z,27.90
2019-01-25T23:28:02.592Z,32.80
2019-01-25T23:30:32.428Z,29.17
2019-01-25T23:33:02.277Z,35.03
2019-01-25T23:35:32.201Z,27.40
2019-01-25T23:38:02.014Z,26.93
2019-01-25T23:40:31.830Z,28.10
2019-01-25T23:43:01.676Z,30.73
2019-01-25T23:45:31.705Z,27.20
2019-01-25T23:48:01.498Z,28.07
2019-01-25T23:50:31.268Z,26.77
2019-01-25T23:53:01.185Z,25.60
2019-01-25T23:55:30.997Z,39.57
2019-01-25T23:58:00.829Z,28.67
